createdAt,value
2023-01-30T00:01:58.632Z,63.79
2023-01-30T00:04:26.595Z,64.42
2023-01-30T00:06:55.899Z,64.03
2023-01-30T00:09:23.807Z,63.43
2023-01-30T00:11:51.725Z,64.54
2023-01-30T00:14:19.909Z,63.23
2023-01-30T00:16:47.930Z,63.75
2023-01-30T00:19:15.863Z,63.30
2023-01-30T00:21:43.775Z,63.75
2023-01-30T00:24:13.344Z,64.05
2023-01-30T00:26:41.338Z,64.55
2023-01-30T00:29:10.638Z,64.39
2023-01-30T00:31:38.534Z,64.68
2023-01-30T00:34:06.468Z,64.27
2023-01-30T00:36:34.380Z,63.83
2023-01-30T00:39:02.240Z,64.87
2023-01-30T00:41:51.552Z,64.33
2023-01-30T00:44:36.976Z,64.33
2023-01-30T00:47:08.970Z,64.84
2023-01-30T00:49:37.524Z,64.90
2023-01-30T00:52:06.231Z,63.92
2023-01-30T00:54:34.257Z,63.33
2023-01-30T00:57:03.499Z,63.64
2023-01-30T00:59:32.475Z,64.07
2023-01-30T01:02:00.560Z,63.86
2023-01-30T01:04:28.723Z,63.88
2023-01-30T01:06:56.741Z,63.23
2023-01-30T01:09:24.721Z,63.94
2023-01-30T01:11:53.830Z,63.50
2023-01-30T01:14:23.056Z,64.00
2023-01-30T01:16:51.109Z,63.78
2023-01-30T01:19:19.078Z,63.06
2023-01-30T01:21:47.304Z,63.45
2023-01-30T01:24:16.888Z,64.21
2023-01-30T01:26:45.859Z,64.23
2023-01-30T01:29:15.155Z,65.01
2023-01-30T01:31:45.691Z,64.25
2023-01-30T01:34:13.723Z,64.76
2023-01-30T01:36:54.373Z,63.69
2023-01-30T01:39:23.484Z,64.17
2023-01-30T01:41:51.077Z,63.98
2023-01-30T01:44:19.217Z,64.13
2023-01-30T01:46:52.272Z,65.44
2023-01-30T01:49:23.640Z,64.55
2023-01-30T01:51:56.464Z,64.96
2023-01-30T01:54:30.686Z,64.86
2023-01-30T01:57:04.339Z,64.91
2023-01-30T01:59:35.946Z,63.97
2023-01-30T02:02:10.332Z,64.35
2023-01-30T02:04:59.241Z,65.79
2023-01-30T02:07:28.701Z,65.98
2023-01-30T02:09:56.828Z,66.91
2023-01-30T02:12:25.823Z,67.06
2023-01-30T02:14:55.809Z,68.05
2023-01-30T02:17:25.886Z,68.88
2023-01-30T02:19:58.967Z,69.01
2023-01-30T02:23:03.271Z,69.33
2023-01-30T02:26:00.800Z,69.44
2023-01-30T02:28:49.673Z,69.01
2023-01-30T02:31:36.941Z,70.11
2023-01-30T02:34:16.803Z,69.37
2023-01-30T02:36:56.194Z,68.95
2023-01-30T02:39:38.638Z,69.44
2023-01-30T02:42:15.746Z,69.60
2023-01-30T02:44:51.910Z,71.96
2023-01-30T02:47:30.551Z,72.19
2023-01-30T02:50:03.419Z,73.12
2023-01-30T02:52:34.009Z,72.48
2023-01-30T02:55:03.026Z,73.67
2023-01-30T02:57:30.893Z,74.26
2023-01-30T03:00:06.003Z,73.34
2023-01-30T03:02:52.452Z,73.99
2023-01-30T03:05:37.955Z,72.77
2023-01-30T03:08:18.258Z,73.21
2023-01-30T03:10:55.870Z,73.08
2023-01-30T03:13:35.437Z,73.39
2023-01-30T03:16:11.366Z,72.91
2023-01-30T03:18:43.120Z,72.22
2023-01-30T03:21:12.784Z,71.92
2023-01-30T03:23:40.725Z,71.85
2023-01-30T03:26:15.427Z,72.25
2023-01-30T03:28:47.486Z,71.63
2023-01-30T03:31:15.962Z,71.41
2023-01-30T03:33:46.058Z,72.40
2023-01-30T03:36:14.467Z,71.35
2023-01-30T03:38:42.841Z,71.71
2023-01-30T03:41:11.778Z,71.01
2023-01-30T03:43:40.555Z,70.91
2023-01-30T03:46:08.513Z,71.88
2023-01-30T03:48:36.488Z,71.38
2023-01-30T03:51:06.319Z,71.88
2023-01-30T03:53:34.680Z,73.93
2023-01-30T03:56:02.669Z,73.50
2023-01-30T03:58:33.392Z,73.85
2023-01-30T04:01:13.819Z,73.67
2023-01-30T04:03:43.228Z,72.53
2023-01-30T04:06:12.559Z,72.76
2023-01-30T04:08:40.809Z,73.31
2023-01-30T04:11:10.821Z,73.19
2023-01-30T04:13:40.493Z,73.00
2023-01-30T04:16:17.491Z,72.73
2023-01-30T04:19:04.291Z,73.25
2023-01-30T04:21:35.715Z,72.46
2023-01-30T04:24:04.053Z,71.96
2023-01-30T04:26:31.969Z,71.88
2023-01-30T04:28:59.916Z,71.40
2023-01-30T04:31:29.887Z,70.55
2023-01-30T04:34:14.051Z,70.83
2023-01-30T04:36:43.401Z,70.32
2023-01-30T04:39:13.068Z,70.70
2023-01-30T04:41:41.934Z,70.26
2023-01-30T04:44:11.938Z,71.58
2023-01-30T04:46:39.822Z,72.05
2023-01-30T04:49:07.877Z,72.03
2023-01-30T04:51:35.873Z,72.63
2023-01-30T04:54:06.627Z,73.19
2023-01-30T04:56:34.860Z,72.59
2023-01-30T04:59:03.229Z,72.89
2023-01-30T05:01:39.047Z,72.82
2023-01-30T05:04:09.095Z,72.46
2023-01-30T05:06:37.700Z,73.01
2023-01-30T05:09:07.360Z,74.64
2023-01-30T05:11:35.633Z,74.99
2023-01-30T05:14:03.842Z,75.50
2023-01-30T05:16:32.343Z,76.86
2023-01-30T05:19:00.330Z,76.52
2023-01-30T05:21:37.504Z,76.78
2023-01-30T05:24:07.965Z,77.47
2023-01-30T05:26:35.917Z,76.96
2023-01-30T05:29:03.817Z,78.54
2023-01-30T05:31:31.694Z,78.30
2023-01-30T05:33:59.595Z,78.34
2023-01-30T05:36:27.499Z,76.95
2023-01-30T05:38:55.519Z,77.74
2023-01-30T05:41:24.733Z,77.72
2023-01-30T05:43:52.787Z,77.79
2023-01-30T05:46:21.090Z,77.34
2023-01-30T05:48:49.283Z,77.75
2023-01-30T05:51:19.661Z,78.54
2023-01-30T05:53:48.071Z,78.77
2023-01-30T05:56:16.470Z,79.07
2023-01-30T05:58:51.809Z,78.45
2023-01-30T06:01:19.950Z,78.94
2023-01-30T06:03:47.920Z,79.17
2023-01-30T06:06:15.950Z,78.52
2023-01-30T06:08:44.161Z,78.27
2023-01-30T06:11:14.941Z,79.54
2023-01-30T06:13:43.104Z,79.74
2023-01-30T06:16:14.630Z,79.92
2023-01-30T06:18:43.072Z,78.71
2023-01-30T06:21:11.323Z,79.84
2023-01-30T06:23:39.721Z,79.78
2023-01-30T06:26:09.196Z,78.84
2023-01-30T06:28:38.181Z,79.58
2023-01-30T06:31:07.884Z,78.89
2023-01-30T06:33:37.389Z,78.84
2023-01-30T06:36:05.857Z,79.34
2023-01-30T06:38:33.764Z,79.60
2023-01-30T06:41:01.700Z,79.15
2023-01-30T06:43:29.615Z,80.50
2023-01-30T06:45:59.849Z,78.97
2023-01-30T06:48:27.959Z,78.84
2023-01-30T06:50:57.521Z,78.88
2023-01-30T06:53:30.378Z,79.21
2023-01-30T06:55:59.120Z,78.44
2023-01-30T06:58:27.497Z,79.30
2023-01-30T07:00:55.445Z,79.15
2023-01-30T07:03:23.612Z,79.76
2023-01-30T07:05:51.525Z,79.70
2023-01-30T07:08:22.579Z,81.15
2023-01-30T07:10:51.893Z,80.74
2023-01-30T07:13:19.779Z,80.30
2023-01-30T07:15:47.796Z,80.46
2023-01-30T07:18:15.651Z,81.78
2023-01-30T07:20:47.214Z,80.36
2023-01-30T07:23:15.205Z,81.83
2023-01-30T07:25:44.618Z,79.46
2023-01-30T07:28:12.496Z,81.33
2023-01-30T07:30:40.482Z,81.76
2023-01-30T07:33:08.576Z,81.67
2023-01-30T07:35:37.955Z,80.05
2023-01-30T07:38:06.314Z,80.05
2023-01-30T07:40:34.430Z,79.74
2023-01-30T07:43:06.080Z,79.35
2023-01-30T07:45:38.233Z,81.72
2023-01-30T07:48:16.888Z,81.17
2023-01-30T07:50:45.354Z,81.37
2023-01-30T07:53:15.543Z,81.69
2023-01-30T07:55:44.005Z,81.44
2023-01-30T07:58:15.299Z,80.82
2023-01-30T08:00:43.197Z,81.56
2023-01-30T08:03:14.006Z,82.16
2023-01-30T08:05:41.999Z,82.79
2023-01-30T08:08:10.116Z,81.69
2023-01-30T08:10:38.061Z,81.75
2023-01-30T08:13:06.067Z,81.24
2023-01-30T08:15:35.340Z,81.55
2023-01-30T08:18:03.232Z,81.44
2023-01-30T08:20:31.171Z,81.65
2023-01-30T08:23:00.122Z,81.79
2023-01-30T08:25:28.345Z,81.73
2023-01-30T08:27:56.700Z,81.71
2023-01-30T08:30:24.836Z,82.28
2023-01-30T08:32:54.122Z,81.61
2023-01-30T08:35:22.170Z,81.56
2023-01-30T08:37:50.071Z,81.50
2023-01-30T08:40:18.443Z,80.97
2023-01-30T08:42:46.914Z,81.17
2023-01-30T08:45:15.432Z,80.62
2023-01-30T08:47:43.548Z,81.64
2023-01-30T08:50:13.169Z,81.49
2023-01-30T08:52:41.101Z,80.44
2023-01-30T08:55:10.430Z,79.78
2023-01-30T08:57:38.480Z,79.62
2023-01-30T09:00:07.589Z,79.60
2023-01-30T09:02:35.586Z,79.57
2023-01-30T09:05:03.507Z,78.75
2023-01-30T09:07:32.867Z,78.07
2023-01-30T09:10:00.920Z,77.44
2023-01-30T09:12:28.821Z,77.54
2023-01-30T09:14:58.606Z,77.65
2023-01-30T09:17:26.642Z,78.71
2023-01-30T09:19:54.676Z,79.44
2023-01-30T09:22:22.605Z,78.85
2023-01-30T09:24:51.961Z,77.37
2023-01-30T09:27:19.915Z,77.43
2023-01-30T09:29:47.816Z,77.14
2023-01-30T09:32:15.700Z,77.02
2023-01-30T09:34:43.671Z,78.01
2023-01-30T09:37:11.594Z,77.56
2023-01-30T09:39:39.486Z,77.22
2023-01-30T09:42:34.493Z,77.27
2023-01-30T09:45:33.835Z,77.16
2023-01-30T09:48:18.243Z,77.03
2023-01-30T09:51:03.167Z,76.72
2023-01-30T09:53:38.060Z,76.30
2023-01-30T09:56:06.896Z,76.93
2023-01-30T09:58:50.113Z,75.90
2023-01-30T10:01:27.446Z,75.21
2023-01-30T10:04:12.191Z,74.55
2023-01-30T10:06:52.625Z,75.97
2023-01-30T10:09:33.017Z,75.25
2023-01-30T10:12:16.250Z,74.42
2023-01-30T10:15:04.823Z,73.48
2023-01-30T10:17:53.838Z,72.62
2023-01-30T10:20:33.063Z,72.54
2023-01-30T10:23:15.230Z,71.75
2023-01-30T10:25:47.452Z,70.81
2023-01-30T10:28:23.720Z,68.84
2023-01-30T10:30:54.455Z,68.23
2023-01-30T10:33:25.896Z,66.69
2023-01-30T10:36:04.677Z,67.55
2023-01-30T10:38:40.964Z,67.60
2023-01-30T10:41:20.142Z,66.95
2023-01-30T10:43:55.812Z,66.93
2023-01-30T10:46:40.864Z,66.60
2023-01-30T10:49:16.980Z,66.18
2023-01-30T10:51:54.892Z,66.47
2023-01-30T10:54:27.890Z,65.36
2023-01-30T10:57:03.199Z,66.34
2023-01-30T10:59:43.234Z,65.89
2023-01-30T11:02:24.416Z,65.96
2023-01-30T11:04:59.341Z,65.65
2023-01-30T11:07:29.440Z,65.53
2023-01-30T11:09:59.316Z,65.64
2023-01-30T11:12:27.390Z,65.69
2023-01-30T11:14:58.675Z,65.11
2023-01-30T11:17:34.743Z,65.37
2023-01-30T11:20:16.510Z,65.72
2023-01-30T11:22:49.926Z,64.79
2023-01-30T11:25:20.986Z,64.81
2023-01-30T11:27:55.026Z,63.76
2023-01-30T11:30:27.769Z,64.75
2023-01-30T11:33:12.906Z,63.74
2023-01-30T11:35:52.426Z,64.26
2023-01-30T11:38:23.995Z,63.74
2023-01-30T11:41:02.222Z,63.84
2023-01-30T11:43:30.681Z,63.14
2023-01-30T11:45:59.661Z,65.27
2023-01-30T11:48:33.485Z,66.96
2023-01-30T11:51:19.466Z,67.26
2023-01-30T11:53:49.984Z,66.38
2023-01-30T11:56:23.966Z,66.92
2023-01-30T11:58:59.047Z,66.52
2023-01-30T12:01:29.515Z,66.93
2023-01-30T12:04:00.251Z,68.72
2023-01-30T12:06:32.237Z,68.53
2023-01-30T12:09:00.802Z,70.92
2023-01-30T12:11:44.848Z,73.57
2023-01-30T12:14:38.845Z,73.61
2023-01-30T12:17:15.821Z,74.58
2023-01-30T12:20:01.307Z,74.50
2023-01-30T12:22:38.877Z,74.28
2023-01-30T12:25:15.679Z,73.37
2023-01-30T12:30:31.430Z,71.95
2023-01-30T12:36:03.213Z,67.99
2023-01-30T12:38:54.503Z,67.15
2023-01-30T12:41:34.851Z,65.80
2023-01-30T12:44:30.456Z,67.48
2023-01-30T12:47:13.004Z,68.27
2023-01-30T12:49:57.284Z,66.69
2023-01-30T12:52:42.823Z,66.93
2023-01-30T12:55:27.873Z,67.77
2023-01-30T12:58:01.715Z,68.33
2023-01-30T13:00:42.239Z,66.04
2023-01-30T13:03:23.787Z,66.40
2023-01-30T13:05:57.996Z,65.46
2023-01-30T13:08:51.208Z,64.83
2023-01-30T13:11:38.286Z,65.76
2023-01-30T13:14:14.156Z,64.16
2023-01-30T13:16:55.993Z,63.87
2023-01-30T13:19:40.317Z,64.75
2023-01-30T13:22:15.324Z,63.76
2023-01-30T13:24:54.337Z,62.18
2023-01-30T13:27:24.482Z,62.24
2023-01-30T13:29:53.859Z,60.89
2023-01-30T13:32:35.741Z,62.07
2023-01-30T13:35:07.440Z,61.30
2023-01-30T13:37:35.677Z,61.51
2023-01-30T13:40:17.516Z,62.76
2023-01-30T13:42:49.869Z,64.02
2023-01-30T13:45:22.159Z,66.63
2023-01-30T13:48:03.944Z,68.27
2023-01-30T13:50:50.107Z,69.91
2023-01-30T13:53:24.305Z,71.22
2023-01-30T13:55:59.384Z,71.67
2023-01-30T13:58:43.831Z,72.49
2023-01-30T14:01:12.537Z,72.49
2023-01-30T14:03:41.243Z,72.56
2023-01-30T14:06:15.347Z,72.66
2023-01-30T14:08:53.468Z,75.36
2023-01-30T14:11:34.437Z,76.27
2023-01-30T14:14:06.346Z,75.98
2023-01-30T14:16:45.901Z,76.40
2023-01-30T14:19:39.110Z,76.18
2023-01-30T14:22:21.350Z,74.85
2023-01-30T14:25:22.656Z,76.28
2023-01-30T14:27:53.093Z,76.10
2023-01-30T14:30:38.610Z,76.60
2023-01-30T14:33:35.389Z,76.38
2023-01-30T14:36:35.723Z,77.32
2023-01-30T14:39:49.405Z,75.61
2023-01-30T14:42:25.523Z,75.63
2023-01-30T14:45:06.699Z,75.51
2023-01-30T14:47:43.110Z,76.00
2023-01-30T14:50:20.782Z,74.57
2023-01-30T14:52:50.591Z,75.52
2023-01-30T14:55:22.235Z,74.83
2023-01-30T14:57:56.771Z,75.75
2023-01-30T15:00:32.159Z,74.91
2023-01-30T15:03:03.050Z,75.53
2023-01-30T15:05:35.073Z,76.77
2023-01-30T15:08:10.974Z,76.89
2023-01-30T15:10:55.450Z,75.52
2023-01-30T15:13:42.605Z,75.11
2023-01-30T15:16:30.568Z,74.56
2023-01-30T15:19:12.234Z,74.21
2023-01-30T15:21:56.398Z,73.81
2023-01-30T15:25:14.784Z,75.07
2023-01-30T15:27:57.572Z,75.44
2023-01-30T15:30:39.933Z,75.04
2023-01-30T15:33:29.176Z,74.50
2023-01-30T15:35:58.785Z,74.28
2023-01-30T15:38:29.859Z,75.38
2023-01-30T15:41:00.849Z,75.26
2023-01-30T15:43:54.873Z,74.58
2023-01-30T15:46:35.007Z,75.35
2023-01-30T15:49:20.727Z,76.54
2023-01-30T15:51:48.961Z,75.06
2023-01-30T15:54:19.822Z,75.06
2023-01-30T15:56:49.926Z,75.47
2023-01-30T15:59:31.698Z,73.57
2023-01-30T16:02:02.198Z,73.66
2023-01-30T16:04:32.078Z,72.54
2023-01-30T16:07:00.987Z,73.17
2023-01-30T16:09:28.964Z,72.53
2023-01-30T16:11:57.066Z,71.86
2023-01-30T16:14:25.125Z,73.26
2023-01-30T16:16:56.167Z,72.27
2023-01-30T16:19:28.696Z,72.74
2023-01-30T16:22:01.890Z,72.48
2023-01-30T16:24:32.708Z,75.00
2023-01-30T16:27:03.515Z,76.07
2023-01-30T16:29:33.652Z,76.57
2023-01-30T16:32:02.115Z,76.25
2023-01-30T16:34:33.455Z,76.13
2023-01-30T16:37:07.792Z,76.84
2023-01-30T16:39:37.423Z,76.21
2023-01-30T16:42:23.506Z,76.15
2023-01-30T16:44:51.491Z,77.62
2023-01-30T16:47:26.065Z,77.66
2023-01-30T16:49:55.830Z,78.29
2023-01-30T16:52:37.074Z,78.44
2023-01-30T16:55:09.507Z,77.76
2023-01-30T16:57:41.780Z,78.57
2023-01-30T17:00:22.539Z,77.88
2023-01-30T17:02:54.369Z,78.44
2023-01-30T17:05:25.185Z,77.93
2023-01-30T17:07:56.738Z,77.94
2023-01-30T17:10:55.944Z,78.90
2023-01-30T17:13:36.637Z,76.99
2023-01-30T17:16:34.859Z,77.24
2023-01-30T17:19:03.330Z,77.57
2023-01-30T17:21:32.704Z,77.70
2023-01-30T17:24:03.974Z,77.54
2023-01-30T17:26:32.757Z,77.61
2023-01-30T17:29:00.749Z,77.67
2023-01-30T17:31:28.677Z,77.89
2023-01-30T17:33:56.642Z,77.54
2023-01-30T17:36:27.830Z,77.34
2023-01-30T17:38:56.205Z,78.33
2023-01-30T17:41:28.513Z,77.35
2023-01-30T17:43:56.517Z,77.51
2023-01-30T17:46:28.333Z,77.91
2023-01-30T17:48:56.515Z,77.64
2023-01-30T17:51:24.435Z,77.45
2023-01-30T17:53:52.382Z,76.44
2023-01-30T17:56:24.175Z,75.93
2023-01-30T17:58:53.461Z,74.81
2023-01-30T18:01:21.519Z,75.40
2023-01-30T18:03:49.639Z,75.66
2023-01-30T18:06:17.655Z,75.14
2023-01-30T18:08:45.554Z,75.14
2023-01-30T18:11:14.892Z,73.63
2023-01-30T18:13:43.857Z,74.93
2023-01-30T18:16:18.446Z,73.21
2023-01-30T18:18:46.496Z,73.65
2023-01-30T18:21:17.524Z,73.06
2023-01-30T18:23:45.432Z,72.24
2023-01-30T18:26:14.306Z,71.92
2023-01-30T18:28:43.933Z,70.78
2023-01-30T18:31:13.475Z,71.05
2023-01-30T18:33:44.562Z,71.64
2023-01-30T18:36:14.672Z,70.79
2023-01-30T18:38:42.747Z,70.72
2023-01-30T18:41:11.894Z,70.25
2023-01-30T18:43:40.226Z,71.03
2023-01-30T18:46:09.994Z,71.36
2023-01-30T18:48:39.743Z,69.84
2023-01-30T18:51:09.844Z,69.88
2023-01-30T18:53:37.846Z,69.89
2023-01-30T18:56:08.635Z,69.88
2023-01-30T18:58:37.556Z,69.65
2023-01-30T19:01:11.210Z,69.33
2023-01-30T19:03:40.762Z,69.41
2023-01-30T19:06:11.616Z,69.30
2023-01-30T19:08:39.864Z,69.17
2023-01-30T19:11:22.525Z,68.45
2023-01-30T19:13:50.434Z,67.83
2023-01-30T19:16:19.102Z,68.69
2023-01-30T19:18:49.594Z,67.89
2023-01-30T19:21:17.757Z,67.92
2023-01-30T19:23:45.673Z,67.99
2023-01-30T19:26:13.654Z,67.02
2023-01-30T19:28:44.606Z,66.82
2023-01-30T19:31:15.311Z,66.80
2023-01-30T19:33:44.012Z,65.81
2023-01-30T19:36:15.865Z,65.76
2023-01-30T19:38:44.826Z,67.49
2023-01-30T19:41:13.835Z,65.94
2023-01-30T19:43:42.468Z,65.68
2023-01-30T19:46:11.909Z,65.31
2023-01-30T19:48:40.474Z,64.78
2023-01-30T19:51:14.974Z,64.09
2023-01-30T19:53:44.302Z,64.13
2023-01-30T19:56:13.393Z,65.07
2023-01-30T19:58:41.732Z,66.36
2023-01-30T20:01:11.755Z,66.15
2023-01-30T20:03:41.048Z,66.75
2023-01-30T20:06:12.873Z,67.98
2023-01-30T20:08:43.071Z,66.36
2023-01-30T20:11:12.056Z,67.82
2023-01-30T20:13:41.658Z,66.68
2023-01-30T20:16:12.552Z,67.72
2023-01-30T20:18:41.954Z,66.74
2023-01-30T20:21:11.361Z,66.86
2023-01-30T20:23:41.236Z,67.17
2023-01-30T20:26:12.700Z,66.79
2023-01-30T20:28:41.195Z,66.95
2023-01-30T20:31:11.709Z,66.60
2023-01-30T20:33:40.336Z,66.20
2023-01-30T20:36:10.323Z,65.78
2023-01-30T20:38:39.839Z,65.32
2023-01-30T20:41:10.140Z,65.09
2023-01-30T20:43:41.380Z,64.81
2023-01-30T20:46:10.820Z,64.49
2023-01-30T20:48:40.509Z,63.30
2023-01-30T20:51:10.260Z,63.13
2023-01-30T20:53:39.614Z,63.87
2023-01-30T20:56:10.591Z,63.75
2023-01-30T20:58:40.694Z,63.38
2023-01-30T21:01:09.790Z,63.79
2023-01-30T21:03:38.311Z,62.87
2023-01-30T21:06:06.793Z,63.33
2023-01-30T21:08:35.463Z,63.25
2023-01-30T21:11:08.977Z,63.16
2023-01-30T21:13:38.289Z,62.19
2023-01-30T21:16:11.582Z,62.04
2023-01-30T21:18:40.364Z,62.09
2023-01-30T21:21:09.619Z,62.14
2023-01-30T21:23:37.938Z,63.04
2023-01-30T21:26:07.957Z,62.93
2023-01-30T21:28:36.939Z,64.67
2023-01-30T21:31:08.457Z,64.50
2023-01-30T21:33:36.699Z,64.48
2023-01-30T21:36:05.700Z,64.42
2023-01-30T21:38:50.961Z,64.98
2023-01-30T21:41:39.007Z,64.45
2023-01-30T21:44:07.649Z,64.32
2023-01-30T21:46:40.392Z,63.95
2023-01-30T21:49:08.530Z,63.66
2023-01-30T21:51:37.715Z,63.45
2023-01-30T21:54:05.853Z,64.30
2023-01-30T21:56:34.283Z,64.44
2023-01-30T21:59:04.174Z,64.45
2023-01-30T22:01:33.104Z,64.36
2023-01-30T22:04:03.432Z,63.89
2023-01-30T22:06:31.314Z,63.98
2023-01-30T22:09:01.326Z,64.40
2023-01-30T22:11:30.147Z,63.92
2023-01-30T22:13:58.802Z,63.92
2023-01-30T22:16:29.638Z,65.19
2023-01-30T22:18:59.278Z,65.02
2023-01-30T22:21:31.607Z,64.42
2023-01-30T22:23:59.767Z,65.13
2023-01-30T22:26:27.989Z,64.99
2023-01-30T22:28:56.687Z,64.52
2023-01-30T22:31:26.432Z,63.65
2023-01-30T22:33:56.495Z,64.89
2023-01-30T22:36:26.345Z,63.71
2023-01-30T22:38:56.042Z,65.02
2023-01-30T22:41:25.962Z,63.98
2023-01-30T22:43:55.788Z,65.17
2023-01-30T22:46:26.001Z,65.04
2023-01-30T22:48:54.290Z,64.58
2023-01-30T22:51:24.278Z,65.07
2023-01-30T22:53:54.074Z,64.50
2023-01-30T22:56:24.767Z,65.54
2023-01-30T22:58:53.316Z,63.96
2023-01-30T23:01:22.671Z,65.17
2023-01-30T23:03:54.653Z,65.23
2023-01-30T23:06:23.028Z,65.00
2023-01-30T23:08:51.494Z,65.61
2023-01-30T23:11:22.087Z,65.86
2023-01-30T23:13:55.445Z,65.67
2023-01-30T23:16:25.360Z,65.70
2023-01-30T23:18:55.475Z,64.99
2023-01-30T23:21:24.774Z,65.16
2023-01-30T23:23:53.975Z,65.47
2023-01-30T23:26:22.958Z,65.09
2023-01-30T23:28:52.514Z,64.94
2023-01-30T23:31:22.387Z,64.57
2023-01-30T23:33:54.605Z,64.07
2023-01-30T23:36:23.068Z,64.37
2023-01-30T23:38:51.910Z,63.85
2023-01-30T23:41:22.417Z,64.07
2023-01-30T23:43:50.918Z,64.14
2023-01-30T23:46:22.694Z,63.90
2023-01-30T23:48:53.311Z,63.94
2023-01-30T23:51:23.500Z,65.12
2023-01-30T23:53:52.440Z,64.38
2023-01-30T23:56:21.725Z,63.92
2023-01-30T23:58:50.355Z,63.99
